sensor_id;sensor_type;location;lat;lon;timestamp;pressure;altitude;pressure_sealevel;temperature;humidity
3434;BME280;1730;41.932;25.548;2024-01-15T00:02:20;99251.47;;;-2.18;100.00
3434;BME280;1730;41.932;25.548;2024-01-15T00:04:45;99394.16;;;-1.15;100.00
3434;BME280;1730;41.932;25.548;2024-01-15T00:07:11;99234.00;;;-2.21;100.00
3434;BME280;1730;41.932;25.548;2024-01-15T00:09:36;99386.84;;;-1.45;100.00
3434;BME280;1730;41.932;25.548;2024-01-15T00:12:02;99350.69;;;-1.78;100.00
3434;BME280;1730;41.932;25.548;2024-01-15T00:14:28;99203.41;;;-2.59;100.00
3434;BME280;1730;41.932;25.548;2024-01-15T00:16:54;99370.50;;;-1.87;100.00
3434;BME280;1730;41.932;25.548;2024-01-15T00:19:23;99299.53;;;-2.29;100.00
3434;BME280;1730;41.932;25.548;2024-01-15T00:21:50;99137.81;;;-3.39;100.00
3434;BME280;1730;41.932;25.548;2024-01-15T00:24:16;99369.41;;;-2.00;100.00
3434;BME280;1730;41.932;25.548;2024-01-15T00:26:42;99372.72;;;-2.14;100.00
3434;BME280;1730;41.932;25.548;2024-01-15T00:29:08;99346.91;;;-2.26;100.00
3434;BME280;1730;41.932;25.548;2024-01-15T00:31:34;99394.06;;;-1.83;100.00
3434;BME280;1730;41.932;25.548;2024-01-15T00:34:00;99384.81;;;-1.91;100.00
3434;BME280;1730;41.932;25.548;2024-01-15T00:36:25;99356.75;;;-2.11;100.00
3434;BME280;1730;41.932;25.548;2024-01-15T00:38:52;99171.94;;;-3.17;100.00
3434;BME280;1730;41.932;25.548;2024-01-15T00:41:18;99387.16;;;-1.85;100.00
3434;BME280;1730;41.932;25.548;2024-01-15T00:43:47;99375.31;;;-1.95;100.00
3434;BME280;1730;41.932;25.548;2024-01-15T00:46:14;99225.03;;;-2.89;100.00
3434;BME280;1730;41.932;25.548;2024-01-15T00:48:40;99395.22;;;-1.71;100.00
3434;BME280;1730;41.932;25.548;2024-01-15T00:51:06;99343.91;;;-2.01;100.00
3434;BME280;1730;41.932;25.548;2024-01-15T00:53:31;99392.22;;;-1.63;100.00
3434;BME280;1730;41.932;25.548;2024-01-15T00:55:57;99244.63;;;-2.40;100.00
3434;BME280;1730;41.932;25.548;2024-01-15T00:58:22;99444.78;;;-1.40;100.00
3434;BME280;1730;41.932;25.548;2024-01-15T01:00:48;99364.59;;;-1.58;100.00
3434;BME280;1730;41.932;25.548;2024-01-15T01:03:13;98990.94;;;-3.88;100.00
3434;BME280;1730;41.932;25.548;2024-01-15T01:05:39;99350.41;;;-1.72;100.00
3434;BME280;1730;41.932;25.548;2024-01-15T01:08:04;98919.78;;;-4.23;100.00
3434;BME280;1730;41.932;25.548;2024-01-15T01:10:30;98924.25;;;-4.25;100.00
3434;BME280;1730;41.932;25.548;2024-01-15T01:12:56;99350.69;;;-1.61;100.00
3434;BME280;1730;41.932;25.548;2024-01-15T01:15:21;99226.31;;;-2.25;100.00
3434;BME280;1730;41.932;25.548;2024-01-15T01:17:47;99058.81;;;-3.22;100.00
3434;BME280;1730;41.932;25.548;2024-01-15T01:20:13;99272.69;;;-2.03;100.00
3434;BME280;1730;41.932;25.548;2024-01-15T01:22:40;99305.09;;;-1.82;100.00
3434;BME280;1730;41.932;25.548;2024-01-15T01:25:07;99308.88;;;-1.88;100.00
3434;BME280;1730;41.932;25.548;2024-01-15T01:27:33;99310.53;;;-1.85;100.00
3434;BME280;1730;41.932;25.548;2024-01-15T01:29:58;99280.91;;;-1.92;100.00
3434;BME280;1730;41.932;25.548;2024-01-15T01:32:24;99292.28;;;-2.07;100.00
3434;BME280;1730;41.932;25.548;2024-01-15T01:34:49;99293.34;;;-2.11;100.00
3434;BME280;1730;41.932;25.548;2024-01-15T01:37:15;99250.12;;;-2.44;100.00
3434;BME280;1730;41.932;25.548;2024-01-15T01:39:41;99290.59;;;-2.27;100.00
3434;BME280;1730;41.932;25.548;2024-01-15T01:42:06;99186.28;;;-2.87;100.00
3434;BME280;1730;41.932;25.548;2024-01-15T01:44:32;99214.97;;;-2.81;100.00
3434;BME280;1730;41.932;25.548;2024-01-15T01:47:01;99303.19;;;-2.14;100.00
3434;BME280;1730;41.932;25.548;2024-01-15T01:49:27;99315.28;;;-2.28;100.00
3434;BME280;1730;41.932;25.548;2024-01-15T01:51:57;99314.97;;;-2.39;100.00
3434;BME280;1730;41.932;25.548;2024-01-15T01:54:23;99094.75;;;-3.75;100.00
3434;BME280;1730;41.932;25.548;2024-01-15T01:56:49;99186.19;;;-3.21;100.00
3434;BME280;1730;41.932;25.548;2024-01-15T01:59:16;99302.44;;;-2.71;100.00
3434;BME280;1730;41.932;25.548;2024-01-15T02:01:42;99295.75;;;-2.78;100.00
3434;BME280;1730;41.932;25.548;2024-01-15T02:04:11;99306.31;;;-2.59;100.00
3434;BME280;1730;41.932;25.548;2024-01-15T02:06:36;99263.31;;;-2.80;100.00
3434;BME280;1730;41.932;25.548;2024-01-15T02:09:03;99137.47;;;-3.69;100.00
3434;BME280;1730;41.932;25.548;2024-01-15T02:11:28;99320.84;;;-2.69;100.00
3434;BME280;1730;41.932;25.548;2024-01-15T02:13:54;98980.84;;;-4.53;100.00
3434;BME280;1730;41.932;25.548;2024-01-15T02:16:20;99285.34;;;-2.81;100.00
3434;BME280;1730;41.932;25.548;2024-01-15T02:18:46;99001.53;;;-4.46;100.00
3434;BME280;1730;41.932;25.548;2024-01-15T02:21:12;99321.81;;;-2.53;100.00
3434;BME280;1730;41.932;25.548;2024-01-15T02:23:38;99297.75;;;-2.64;100.00
3434;BME280;1730;41.932;25.548;2024-01-15T02:26:05;99266.31;;;-3.06;100.00
3434;BME280;1730;41.932;25.548;2024-01-15T02:28:30;99271.25;;;-3.17;100.00
3434;BME280;1730;41.932;25.548;2024-01-15T02:30:57;99274.75;;;-3.17;100.00
3434;BME280;1730;41.932;25.548;2024-01-15T02:33:23;99290.34;;;-3.12;100.00
3434;BME280;1730;41.932;25.548;2024-01-15T02:35:49;99295.00;;;-2.99;100.00
3434;BME280;1730;41.932;25.548;2024-01-15T02:38:15;99297.94;;;-3.06;100.00
3434;BME280;1730;41.932;25.548;2024-01-15T02:40:43;99303.44;;;-3.11;100.00
3434;BME280;1730;41.932;25.548;2024-01-15T02:43:08;99187.72;;;-3.73;100.00
3434;BME280;1730;41.932;25.548;2024-01-15T02:45:34;99285.34;;;-3.19;100.00
3434;BME280;1730;41.932;25.548;2024-01-15T02:48:00;99320.28;;;-2.95;100.00
3434;BME280;1730;41.932;25.548;2024-01-15T02:50:26;99053.53;;;-4.32;100.00
3434;BME280;1730;41.932;25.548;2024-01-15T02:52:51;99281.44;;;-2.91;100.00
3434;BME280;1730;41.932;25.548;2024-01-15T02:55:17;99318.69;;;-2.61;100.00
3434;BME280;1730;41.932;25.548;2024-01-15T02:57:42;99312.06;;;-2.70;100.00
3434;BME280;1730;41.932;25.548;2024-01-15T03:00:08;99318.16;;;-2.68;100.00
3434;BME280;1730;41.932;25.548;2024-01-15T03:02:38;99316.69;;;-2.56;100.00
3434;BME280;1730;41.932;25.548;2024-01-15T03:05:11;99308.63;;;-2.53;100.00
3434;BME280;1730;41.932;25.548;2024-01-15T03:07:37;99295.00;;;-2.63;100.00
3434;BME280;1730;41.932;25.548;2024-01-15T03:10:04;99158.81;;;-3.37;100.00
3434;BME280;1730;41.932;25.548;2024-01-15T03:12:30;99270.50;;;-2.65;100.00
3434;BME280;1730;41.932;25.548;2024-01-15T03:14:56;99276.47;;;-2.61;100.00
3434;BME280;1730;41.932;25.548;2024-01-15T03:17:22;99269.00;;;-2.70;100.00
3434;BME280;1730;41.932;25.548;2024-01-15T03:19:48;99266.00;;;-2.63;100.00
3434;BME280;1730;41.932;25.548;2024-01-15T03:22:15;99261.31;;;-2.75;100.00
3434;BME280;1730;41.932;25.548;2024-01-15T03:24:40;99246.34;;;-2.93;100.00
3434;BME280;1730;41.932;25.548;2024-01-15T03:27:06;99234.50;;;-3.21;100.00
3434;BME280;1730;41.932;25.548;2024-01-15T03:29:33;99106.78;;;-3.88;100.00
3434;BME280;1730;41.932;25.548;2024-01-15T03:31:58;98967.81;;;-4.75;100.00
3434;BME280;1730;41.932;25.548;2024-01-15T03:34:25;99244.38;;;-3.07;100.00
3434;BME280;1730;41.932;25.548;2024-01-15T03:36:51;99159.53;;;-3.71;100.00
3434;BME280;1730;41.932;25.548;2024-01-15T03:39:18;99206.25;;;-3.56;100.00
3434;BME280;1730;41.932;25.548;2024-01-15T03:41:43;99197.94;;;-3.47;100.00
3434;BME280;1730;41.932;25.548;2024-01-15T03:44:09;99242.72;;;-3.47;100.00
3434;BME280;1730;41.932;25.548;2024-01-15T03:46:35;99052.62;;;-4.51;100.00
3434;BME280;1730;41.932;25.548;2024-01-15T03:49:00;99160.00;;;-4.00;100.00
3434;BME280;1730;41.932;25.548;2024-01-15T03:51:26;99059.34;;;-4.65;100.00
3434;BME280;1730;41.932;25.548;2024-01-15T03:53:51;98826.53;;;-6.07;100.00
3434;BME280;1730;41.932;25.548;2024-01-15T03:56:18;99083.62;;;-4.58;100.00
3434;BME280;1730;41.932;25.548;2024-01-15T03:58:43;99312.34;;;-3.13;100.00
3434;BME280;1730;41.932;25.548;2024-01-15T04:01:09;99078.41;;;-4.39;100.00
3434;BME280;1730;41.932;25.548;2024-01-15T04:03:35;99164.19;;;-3.96;100.00
3434;BME280;1730;41.932;25.548;2024-01-15T04:06:02;99285.34;;;-3.19;100.00
3434;BME280;1730;41.932;25.548;2024-01-15T04:08:27;99286.91;;;-3.14;100.00
3434;BME280;1730;41.932;25.548;2024-01-15T04:10:53;99115.75;;;-4.31;100.00
3434;BME280;1730;41.932;25.548;2024-01-15T04:13:20;99292.56;;;-3.03;100.00
3434;BME280;1730;41.932;25.548;2024-01-15T04:15:45;99170.97;;;-3.72;100.00
3434;BME280;1730;41.932;25.548;2024-01-15T04:18:11;99289.63;;;-2.79;100.00
3434;BME280;1730;41.932;25.548;2024-01-15T04:20:37;99291.06;;;-3.09;100.00
3434;BME280;1730;41.932;25.548;2024-01-15T04:23:02;99270.66;;;-2.87;100.00
3434;BME280;1730;41.932;25.548;2024-01-15T04:25:28;99167.22;;;-3.67;100.00
3434;BME280;1730;41.932;25.548;2024-01-15T04:27:53;99072.75;;;-4.30;100.00
3434;BME280;1730;41.932;25.548;2024-01-15T04:30:19;99159.12;;;-3.43;100.00
3434;BME280;1730;41.932;25.548;2024-01-15T04:32:44;98985.25;;;-4.54;100.00
3434;BME280;1730;41.932;25.548;2024-01-15T04:35:10;99139.66;;;-3.59;100.00
3434;BME280;1730;41.932;25.548;2024-01-15T04:37:35;99262.97;;;-2.91;100.00
3434;BME280;1730;41.932;25.548;2024-01-15T04:40:02;99055.78;;;-4.04;100.00
3434;BME280;1730;41.932;25.548;2024-01-15T04:42:29;99160.53;;;-3.17;100.00
3434;BME280;1730;41.932;25.548;2024-01-15T04:44:54;99220.06;;;-2.95;100.00
3434;BME280;1730;41.932;25.548;2024-01-15T04:47:20;99142.88;;;-3.34;100.00
3434;BME280;1730;41.932;25.548;2024-01-15T04:49:45;99016.94;;;-3.99;100.00
3434;BME280;1730;41.932;25.548;2024-01-15T04:52:11;99133.50;;;-3.04;100.00
3434;BME280;1730;41.932;25.548;2024-01-15T04:54:37;99030.84;;;-3.60;100.00
3434;BME280;1730;41.932;25.548;2024-01-15T04:57:03;99256.88;;;-2.56;100.00
3434;BME280;1730;41.932;25.548;2024-01-15T04:59:29;99095.63;;;-3.56;100.00
3434;BME280;1730;41.932;25.548;2024-01-15T05:01:55;99064.44;;;-3.65;100.00
3434;BME280;1730;41.932;25.548;2024-01-15T05:04:20;99188.44;;;-2.95;100.00
3434;BME280;1730;41.932;25.548;2024-01-15T05:06:46;99185.13;;;-2.81;100.00
3434;BME280;1730;41.932;25.548;2024-01-15T05:09:12;99191.56;;;-2.69;100.00
3434;BME280;1730;41.932;25.548;2024-01-15T05:11:39;99202.19;;;-3.07;100.00
3434;BME280;1730;41.932;25.548;2024-01-15T05:14:04;99202.06;;;-2.68;100.00
3434;BME280;1730;41.932;25.548;2024-01-15T05:16:30;99196.97;;;-2.90;100.00
3434;BME280;1730;41.932;25.548;2024-01-15T05:18:56;99002.47;;;-3.91;100.00
3434;BME280;1730;41.932;25.548;2024-01-15T05:21:21;99233.78;;;-2.69;100.00
3434;BME280;1730;41.932;25.548;2024-01-15T05:23:47;99120.78;;;-2.96;100.00
3434;BME280;1730;41.932;25.548;2024-01-15T05:26:12;99032.06;;;-3.50;100.00
3434;BME280;1730;41.932;25.548;2024-01-15T05:28:43;99008.13;;;-3.62;100.00
3434;BME280;1730;41.932;25.548;2024-01-15T05:31:09;99131.84;;;-3.06;100.00
3434;BME280;1730;41.932;25.548;2024-01-15T05:33:35;99139.00;;;-3.08;100.00
3434;BME280;1730;41.932;25.548;2024-01-15T05:36:01;99154.87;;;-3.29;100.00
3434;BME280;1730;41.932;25.548;2024-01-15T05:38:27;99105.00;;;-3.50;100.00
3434;BME280;1730;41.932;25.548;2024-01-15T05:40:53;99132.66;;;-3.23;100.00
3434;BME280;1730;41.932;25.548;2024-01-15T05:43:19;99152.97;;;-2.89;100.00
3434;BME280;1730;41.932;25.548;2024-01-15T05:45:44;99094.31;;;-3.47;100.00
3434;BME280;1730;41.932;25.548;2024-01-15T05:48:10;99126.34;;;-3.02;100.00
3434;BME280;1730;41.932;25.548;2024-01-15T05:50:36;99100.31;;;-3.08;100.00
3434;BME280;1730;41.932;25.548;2024-01-15T05:53:02;98973.44;;;-3.89;100.00
3434;BME280;1730;41.932;25.548;2024-01-15T05:55:28;99122.72;;;-2.99;100.00
3434;BME280;1730;41.932;25.548;2024-01-15T05:57:53;99146.50;;;-2.48;100.00
3434;BME280;1730;41.932;25.548;2024-01-15T06:00:19;99150.84;;;-2.64;100.00
3434;BME280;1730;41.932;25.548;2024-01-15T06:02:45;99135.94;;;-2.31;100.00
3434;BME280;1730;41.932;25.548;2024-01-15T06:05:10;99126.69;;;-2.22;100.00
3434;BME280;1730;41.932;25.548;2024-01-15T06:07:36;99106.50;;;-2.40;100.00
3434;BME280;1730;41.932;25.548;2024-01-15T06:10:02;98959.63;;;-3.07;100.00
3434;BME280;1730;41.932;25.548;2024-01-15T06:12:28;99084.53;;;-2.41;100.00
3434;BME280;1730;41.932;25.548;2024-01-15T06:14:54;98858.84;;;-3.79;100.00
3434;BME280;1730;41.932;25.548;2024-01-15T06:17:21;99020.28;;;-2.72;100.00
3434;BME280;1730;41.932;25.548;2024-01-15T06:19:46;99114.22;;;-2.03;100.00
3434;BME280;1730;41.932;25.548;2024-01-15T06:22:12;99079.66;;;-1.98;100.00
3434;BME280;1730;41.932;25.548;2024-01-15T06:24:37;99047.34;;;-2.03;100.00
3434;BME280;1730;41.932;25.548;2024-01-15T06:27:03;99067.06;;;-1.77;100.00
3434;BME280;1730;41.932;25.548;2024-01-15T06:29:29;98851.13;;;-3.32;100.00
3434;BME280;1730;41.932;25.548;2024-01-15T06:31:55;98886.16;;;-3.30;100.00
3434;BME280;1730;41.932;25.548;2024-01-15T06:34:20;98901.94;;;-2.96;100.00
3434;BME280;1730;41.932;25.548;2024-01-15T06:36:46;99029.97;;;-2.07;100.00
3434;BME280;1730;41.932;25.548;2024-01-15T06:39:11;98435.84;;;-5.24;100.00
3434;BME280;1730;41.932;25.548;2024-01-15T06:41:37;98837.09;;;-3.00;100.00
3434;BME280;1730;41.932;25.548;2024-01-15T06:44:12;99021.12;;;-1.75;100.00
3434;BME280;1730;41.932;25.548;2024-01-15T06:46:44;98967.69;;;-1.96;100.00
3434;BME280;1730;41.932;25.548;2024-01-15T06:49:10;99026.37;;;-1.28;100.00
3434;BME280;1730;41.932;25.548;2024-01-15T06:51:36;99010.44;;;-1.58;100.00
3434;BME280;1730;41.932;25.548;2024-01-15T06:54:02;98676.03;;;-3.42;100.00
3434;BME280;1730;41.932;25.548;2024-01-15T06:56:27;98938.41;;;-2.07;100.00
3434;BME280;1730;41.932;25.548;2024-01-15T06:58:53;98993.09;;;-1.77;100.00
3434;BME280;1730;41.932;25.548;2024-01-15T07:01:18;99004.09;;;-1.54;100.00
3434;BME280;1730;41.932;25.548;2024-01-15T07:03:44;98892.81;;;-1.95;100.00
3434;BME280;1730;41.932;25.548;2024-01-15T07:06:10;98985.56;;;-1.54;100.00
3434;BME280;1730;41.932;25.548;2024-01-15T07:08:39;98849.28;;;-2.19;100.00
3434;BME280;1730;41.932;25.548;2024-01-15T07:11:04;98934.63;;;-1.71;100.00
3434;BME280;1730;41.932;25.548;2024-01-15T07:13:30;98981.78;;;-1.34;100.00
3434;BME280;1730;41.932;25.548;2024-01-15T07:15:56;98774.75;;;-2.38;100.00
3434;BME280;1730;41.932;25.548;2024-01-15T07:18:22;98862.03;;;-1.80;100.00
3434;BME280;1730;41.932;25.548;2024-01-15T07:20:49;98890.91;;;-1.47;100.00
3434;BME280;1730;41.932;25.548;2024-01-15T07:23:14;98941.69;;;-1.12;100.00
3434;BME280;1730;41.932;25.548;2024-01-15T07:25:41;98949.28;;;-0.92;100.00
3434;BME280;1730;41.932;25.548;2024-01-15T07:28:07;98944.56;;;-0.87;100.00
3434;BME280;1730;41.932;25.548;2024-01-15T07:30:34;98543.59;;;-3.46;100.00
3434;BME280;1730;41.932;25.548;2024-01-15T07:33:00;98927.69;;;-0.70;100.00
3434;BME280;1730;41.932;25.548;2024-01-15T07:35:26;98948.66;;;-0.39;100.00
3434;BME280;1730;41.932;25.548;2024-01-15T07:37:52;98938.81;;;-0.23;100.00
3434;BME280;1730;41.932;25.548;2024-01-15T07:40:18;98967.62;;;0.37;100.00
3434;BME280;1730;41.932;25.548;2024-01-15T07:42:43;98847.66;;;0.21;100.00
3434;BME280;1730;41.932;25.548;2024-01-15T07:45:10;98838.75;;;0.61;100.00
3434;BME280;1730;41.932;25.548;2024-01-15T07:47:36;98865.28;;;0.74;100.00
3434;BME280;1730;41.932;25.548;2024-01-15T07:50:03;98859.53;;;0.93;100.00
3434;BME280;1730;41.932;25.548;2024-01-15T07:52:31;98845.31;;;1.19;100.00
3434;BME280;1730;41.932;25.548;2024-01-15T07:54:57;98842.53;;;1.33;100.00
3434;BME280;1730;41.932;25.548;2024-01-15T07:57:25;98792.44;;;1.16;100.00
3434;BME280;1730;41.932;25.548;2024-01-15T07:59:51;98808.47;;;1.63;100.00
3434;BME280;1730;41.932;25.548;2024-01-15T08:02:17;98658.91;;;1.50;100.00
3434;BME280;1730;41.932;25.548;2024-01-15T08:04:43;98754.94;;;1.80;100.00
3434;BME280;1730;41.932;25.548;2024-01-15T08:07:09;98759.44;;;2.15;100.00
3434;BME280;1730;41.932;25.548;2024-01-15T08:09:35;98767.00;;;2.32;100.00
3434;BME280;1730;41.932;25.548;2024-01-15T08:12:00;98769.22;;;2.14;100.00
3434;BME280;1730;41.932;25.548;2024-01-15T08:14:26;98773.09;;;2.10;100.00
3434;BME280;1730;41.932;25.548;2024-01-15T08:16:52;98726.78;;;2.02;100.00
3434;BME280;1730;41.932;25.548;2024-01-15T08:19:18;98803.72;;;2.62;100.00
3434;BME280;1730;41.932;25.548;2024-01-15T08:21:45;98763.34;;;2.33;100.00
3434;BME280;1730;41.932;25.548;2024-01-15T08:24:11;98704.22;;;2.18;100.00
3434;BME280;1730;41.932;25.548;2024-01-15T08:26:36;98773.59;;;1.92;100.00
3434;BME280;1730;41.932;25.548;2024-01-15T08:29:02;98783.25;;;1.69;100.00
3434;BME280;1730;41.932;25.548;2024-01-15T08:31:27;98715.22;;;1.31;100.00
3434;BME280;1730;41.932;25.548;2024-01-15T08:33:53;98860.94;;;2.09;100.00
3434;BME280;1730;41.932;25.548;2024-01-15T08:36:19;98920.66;;;2.63;100.00
3434;BME280;1730;41.932;25.548;2024-01-15T08:38:44;98921.66;;;2.62;100.00
3434;BME280;1730;41.932;25.548;2024-01-15T08:41:10;98900.78;;;2.80;100.00
3434;BME280;1730;41.932;25.548;2024-01-15T08:43:36;98934.22;;;3.41;100.00
3434;BME280;1730;41.932;25.548;2024-01-15T08:46:02;98555.84;;;1.20;100.00
3434;BME280;1730;41.932;25.548;2024-01-15T08:48:28;98885.63;;;3.27;100.00
3434;BME280;1730;41.932;25.548;2024-01-15T08:50:54;98874.63;;;3.76;100.00
3434;BME280;1730;41.932;25.548;2024-01-15T08:53:21;98863.44;;;4.36;100.00
3434;BME280;1730;41.932;25.548;2024-01-15T08:55:46;98816.31;;;4.25;100.00
3434;BME280;1730;41.932;25.548;2024-01-15T08:58:13;98782.69;;;3.91;100.00
3434;BME280;1730;41.932;25.548;2024-01-15T09:00:38;98771.06;;;4.24;100.00
3434;BME280;1730;41.932;25.548;2024-01-15T09:03:04;98716.19;;;3.89;100.00
3434;BME280;1730;41.932;25.548;2024-01-15T09:05:30;98738.59;;;4.39;100.00
3434;BME280;1730;41.932;25.548;2024-01-15T09:07:56;98724.41;;;4.39;100.00
3434;BME280;1730;41.932;25.548;2024-01-15T09:10:22;98710.44;;;4.46;100.00
3434;BME280;1730;41.932;25.548;2024-01-15T09:12:49;98712.28;;;4.35;100.00
3434;BME280;1730;41.932;25.548;2024-01-15T09:15:15;98370.84;;;2.31;100.00
3434;BME280;1730;41.932;25.548;2024-01-15T09:17:40;98718.69;;;4.23;100.00
3434;BME280;1730;41.932;25.548;2024-01-15T09:20:08;98589.47;;;3.74;100.00
3434;BME280;1730;41.932;25.548;2024-01-15T09:22:34;98709.28;;;4.70;100.00
3434;BME280;1730;41.932;25.548;2024-01-15T09:24:59;98697.78;;;4.69;100.00
3434;BME280;1730;41.932;25.548;2024-01-15T09:27:25;98696.13;;;4.57;100.00
3434;BME280;1730;41.932;25.548;2024-01-15T09:29:54;98715.56;;;4.59;100.00
3434;BME280;1730;41.932;25.548;2024-01-15T09:32:19;98715.41;;;4.40;100.00
3434;BME280;1730;41.932;25.548;2024-01-15T09:34:48;98720.97;;;4.27;100.00
3434;BME280;1730;41.932;25.548;2024-01-15T09:37:14;98724.88;;;4.65;100.00
3434;BME280;1730;41.932;25.548;2024-01-15T09:39:40;98570.31;;;3.59;100.00
3434;BME280;1730;41.932;25.548;2024-01-15T09:42:07;98707.44;;;4.70;100.00
3434;BME280;1730;41.932;25.548;2024-01-15T09:44:34;98679.66;;;5.13;100.00
3434;BME280;1730;41.932;25.548;2024-01-15T09:47:01;98630.41;;;5.06;100.00
3434;BME280;1730;41.932;25.548;2024-01-15T09:49:26;98599.25;;;5.44;100.00
3434;BME280;1730;41.932;25.548;2024-01-15T09:51:53;98609.81;;;5.75;100.00
3434;BME280;1730;41.932;25.548;2024-01-15T09:54:20;98592.66;;;5.68;100.00
3434;BME280;1730;41.932;25.548;2024-01-15T09:56:47;98581.66;;;5.32;100.00
3434;BME280;1730;41.932;25.548;2024-01-15T09:59:16;98572.94;;;5.50;100.00
3434;BME280;1730;41.932;25.548;2024-01-15T10:01:44;98561.28;;;5.70;100.00
3434;BME280;1730;41.932;25.548;2024-01-15T10:04:13;98547.75;;;5.33;100.00
3434;BME280;1730;41.932;25.548;2024-01-15T10:06:39;98546.38;;;5.29;100.00
3434;BME280;1730;41.932;25.548;2024-01-15T10:09:07;98540.41;;;5.93;100.00
3434;BME280;1730;41.932;25.548;2024-01-15T10:11:33;98530.94;;;6.08;100.00
3434;BME280;1730;41.932;25.548;2024-01-15T10:13:58;98531.34;;;6.13;100.00
3434;BME280;1730;41.932;25.548;2024-01-15T10:16:25;98489.06;;;5.60;100.00
3434;BME280;1730;41.932;25.548;2024-01-15T10:18:51;98394.88;;;5.29;100.00
3434;BME280;1730;41.932;25.548;2024-01-15T10:21:17;98507.47;;;5.92;100.00
3434;BME280;1730;41.932;25.548;2024-01-15T10:23:42;98502.91;;;6.12;100.00
3434;BME280;1730;41.932;25.548;2024-01-15T10:26:08;98493.25;;;5.82;100.00
3434;BME280;1730;41.932;25.548;2024-01-15T10:28:33;98300.94;;;4.59;100.00
3434;BME280;1730;41.932;25.548;2024-01-15T10:31:00;98436.94;;;5.83;100.00
3434;BME280;1730;41.932;25.548;2024-01-15T10:33:26;98465.56;;;5.54;100.00
3434;BME280;1730;41.932;25.548;2024-01-15T10:35:59;98478.47;;;5.78;100.00
3434;BME280;1730;41.932;25.548;2024-01-15T10:38:25;98350.94;;;4.95;100.00
3434;BME280;1730;41.932;25.548;2024-01-15T10:40:52;98482.41;;;5.93;100.00
3434;BME280;1730;41.932;25.548;2024-01-15T10:43:18;98474.66;;;5.90;100.00
3434;BME280;1730;41.932;25.548;2024-01-15T10:45:48;98463.25;;;5.88;100.00
3434;BME280;1730;41.932;25.548;2024-01-15T10:48:17;98463.34;;;5.50;100.00
3434;BME280;1730;41.932;25.548;2024-01-15T10:50:47;98468.97;;;5.47;100.00
3434;BME280;1730;41.932;25.548;2024-01-15T10:53:15;98471.19;;;5.70;100.00
3434;BME280;1730;41.932;25.548;2024-01-15T10:55:42;98376.91;;;5.22;100.00
3434;BME280;1730;41.932;25.548;2024-01-15T10:58:09;98445.03;;;5.55;100.00
3434;BME280;1730;41.932;25.548;2024-01-15T11:00:35;98318.06;;;5.31;100.00
3434;BME280;1730;41.932;25.548;2024-01-15T11:03:04;98247.31;;;4.33;100.00
3434;BME280;1730;41.932;25.548;2024-01-15T11:05:36;98296.88;;;4.45;100.00
3434;BME280;1730;41.932;25.548;2024-01-15T11:08:06;98426.94;;;5.20;100.00
3434;BME280;1730;41.932;25.548;2024-01-15T11:10:46;98447.06;;;5.24;100.00
3434;BME280;1730;41.932;25.548;2024-01-15T11:16:04;98429.63;;;5.00;100.00
3434;BME280;1730;41.932;25.548;2024-01-15T11:18:34;98427.06;;;5.37;100.00
3434;BME280;1730;41.932;25.548;2024-01-15T11:23:49;98456.03;;;5.98;100.00
3434;BME280;1730;41.932;25.548;2024-01-15T11:29:01;98410.53;;;6.35;100.00
3434;BME280;1730;41.932;25.548;2024-01-15T11:34:07;98405.16;;;6.35;100.00
3434;BME280;1730;41.932;25.548;2024-01-15T11:42:02;98366.03;;;6.07;100.00
3434;BME280;1730;41.932;25.548;2024-01-15T11:44:29;98359.12;;;6.31;100.00
3434;BME280;1730;41.932;25.548;2024-01-15T11:47:05;98358.12;;;6.68;100.00
3434;BME280;1730;41.932;25.548;2024-01-15T11:52:22;98365.16;;;6.51;100.00
3434;BME280;1730;41.932;25.548;2024-01-15T11:55:10;98355.16;;;6.89;100.00
3434;BME280;1730;41.932;25.548;2024-01-15T11:57:46;98352.16;;;6.56;100.00
3434;BME280;1730;41.932;25.548;2024-01-15T12:00:13;98351.62;;;6.70;100.00
3434;BME280;1730;41.932;25.548;2024-01-15T12:02:41;98337.84;;;6.83;100.00
3434;BME280;1730;41.932;25.548;2024-01-15T12:05:12;98336.94;;;6.74;100.00
3434;BME280;1730;41.932;25.548;2024-01-15T12:07:39;98315.91;;;6.62;100.00
3434;BME280;1730;41.932;25.548;2024-01-15T12:10:12;98323.69;;;6.55;100.00
3434;BME280;1730;41.932;25.548;2024-01-15T12:13:00;98319.31;;;6.72;100.00
3434;BME280;1730;41.932;25.548;2024-01-15T12:15:29;98322.72;;;6.56;100.00
3434;BME280;1730;41.932;25.548;2024-01-15T12:17:58;98301.87;;;6.68;100.00
3434;BME280;1730;41.932;25.548;2024-01-15T12:20:27;98278.63;;;6.68;100.00
3434;BME280;1730;41.932;25.548;2024-01-15T12:22:53;98292.56;;;6.37;100.00
3434;BME280;1730;41.932;25.548;2024-01-15T12:25:21;98165.31;;;5.54;100.00
3434;BME280;1730;41.932;25.548;2024-01-15T12:27:47;98287.81;;;6.66;100.00
3434;BME280;1730;41.932;25.548;2024-01-15T12:30:13;98082.41;;;5.00;100.00
3434;BME280;1730;41.932;25.548;2024-01-15T12:32:43;98222.50;;;5.43;100.00
3434;BME280;1730;41.932;25.548;2024-01-15T12:35:10;98253.09;;;6.03;100.00
3434;BME280;1730;41.932;25.548;2024-01-15T12:37:36;98273.56;;;5.67;100.00
3434;BME280;1730;41.932;25.548;2024-01-15T12:40:04;97974.28;;;3.78;100.00
3434;BME280;1730;41.932;25.548;2024-01-15T12:42:32;98214.97;;;5.56;100.00
3434;BME280;1730;41.932;25.548;2024-01-15T12:44:59;98151.06;;;5.35;100.00
3434;BME280;1730;41.932;25.548;2024-01-15T12:47:25;98275.38;;;6.21;100.00
3434;BME280;1730;41.932;25.548;2024-01-15T12:49:54;98267.88;;;5.80;100.00
3434;BME280;1730;41.932;25.548;2024-01-15T12:52:20;98211.13;;;6.04;100.00
3434;BME280;1730;41.932;25.548;2024-01-15T12:54:49;98115.97;;;5.48;100.00
3434;BME280;1730;41.932;25.548;2024-01-15T12:57:16;98254.81;;;6.22;100.00
3434;BME280;1730;41.932;25.548;2024-01-15T12:59:43;98236.72;;;5.88;100.00
3434;BME280;1730;41.932;25.548;2024-01-15T13:02:10;98139.03;;;5.67;100.00
3434;BME280;1730;41.932;25.548;2024-01-15T13:04:37;98137.62;;;6.33;100.00
3434;BME280;1730;41.932;25.548;2024-01-15T13:07:02;98245.38;;;7.05;100.00
3434;BME280;1730;41.932;25.548;2024-01-15T13:09:28;98239.19;;;6.00;100.00
3434;BME280;1730;41.932;25.548;2024-01-15T13:11:55;98247.50;;;5.79;100.00
3434;BME280;1730;41.932;25.548;2024-01-15T13:14:20;98249.25;;;5.88;100.00
3434;BME280;1730;41.932;25.548;2024-01-15T13:16:46;98132.84;;;5.49;100.00
3434;BME280;1730;41.932;25.548;2024-01-15T13:19:12;98246.38;;;6.34;100.00
3434;BME280;1730;41.932;25.548;2024-01-15T13:21:41;98233.78;;;6.09;100.00